Muir Army Air Field (Fort Indiantown Gap) Airport
KMUI : now visible

Airfield :











YOU CAN JOIN US ON...

 
LOGIN :

Register | Disclaimer

   EN    FR    IT 

 









Legend :    VFR   Marginal VFR   IFR   Intensive IFR   Very Intensive IFR
Visi :
Ceiling :
>= 8 km
>= 3000ft
5 to 8 km
1000 to 3000 ft
1500m to 5 km
500 to 1000 ft
800 to 1500m
200 to 500 ft
< 800m
< 200 ft
Symbols :   Thunderstorms  Fog  Heavy snow  Heavy precipitations  Wind > 20 kt






- Airport Elevation : 488 ft


KMUI - Muir Army Air Field (Fort Indiantown Gap)

CURRENT METAR :
  • 230711Z AUTO 00000KT 8SM OVC006 21/20 A2994 RMK AO2 CIG 006V008 OVC V BKN SLP139

EXPIRED METARs :
  • 230655Z AUTO 00000KT 6SM BR OVC008 21/20 A2995 RMK AO2 CIG 008V010 SLP142 T02110202
  • 230619Z AUTO 00000KT 8SM BKN011 BKN070 OVC085 21/20 A2995 RMK AO2 CIG 011V070 BKN011 V SCT SLP142
  • 230555Z AUTO 00000KT 9SM SCT012 BKN070 OVC085 21/20 A2995 RMK AO2 SLP142 60013 T02120202 10220 20209 57010
  • 230527Z AUTO 00000KT 10SM OVC013 21/20 A2996 RMK AO2 SLP145
  • 230455Z AUTO 00000KT 9SM BKN017 OVC100 21/20 A2996 RMK AO2 SLP145 T02100201 402730193
  • 230435Z AUTO 00000KT 10SM SCT017 OVC100 21/20 A2996 RMK AO2 SLP145
  • 230411Z AUTO 00000KT 10SM BKN017 OVC120 21/20 A2996 RMK AO2 CIG 017V120 BKN V FEW SLP145
  • 230355Z AUTO 01003KT 10SM FEW100 OVC120 21/20 A2996 RMK AO2 SLP145 P0002 T02130203
  • 230255Z AUTO 00000KT 9SM OVC095 22/20 A2998 RMK AO2 RAE0155DZB0155E45 SLP152 P0006 60011 T02160204 51001
  • 230245Z AUTO 00000KT 9SM OVC095 22/20 A2998 RMK AO2 RAE0155DZB0155E45 SLP152

TAF TAF KMUI
Valid from the 23 at 03:00 until the 24 at 09:00 UTC


230300Z 2303/2409 17009KT 8000 -RA OVC020 QNH2995INS
TEMPO 2304/2307 23015G25KT 4800 -TSRA OVC017CB
BECMG 2309/2310 30010G15KT 8000 BR BKN030 QNH2998INS
BECMG 2318/2319 30006KT 9999 NSW SCT030 QNH3003INS
BECMG 2401/2402 VRB06KT 9999 BKN050 QNH3007INS
TEMPO 2404/2409 23010G15KT 8000 -TSRA BKN040CB TX28/2321Z TN20/2311Z LAST NO AMDS AFT 2305 NEXT 2311
KZNY FIR / North America



MET'MAP, your aeronautical weather chart ! - Copyright ORBIFLY December 2007 - Disclaimer

ORBIFLY MET'MAP TEAM :

Programming & Development : Alexandra Zaïnal
Original concept : Baudouin d'Aumeries
Technical & hardware support : Manuel Goepfert
Assistance : Marc-Olivier Méhu




SOURCES & CREDITS :

   NOAA       Earth
Advisory